sensor_id;sensor_type;location;lat;lon;timestamp;pressure;altitude;pressure_sealevel;temperature;humidity
59545;BME280;45368;55.002;-1.592;2022-12-17T00:01:16;100601.18;;;-0.40;65.60
59545;BME280;45368;55.002;-1.592;2022-12-17T00:03:44;100595.05;;;0.07;65.43
59545;BME280;45368;55.002;-1.592;2022-12-17T00:06:12;100593.69;;;-0.17;65.98
59545;BME280;45368;55.002;-1.592;2022-12-17T00:08:39;100592.30;;;-0.40;66.59
59545;BME280;45368;55.002;-1.592;2022-12-17T00:11:07;100590.49;;;-0.75;67.31
59545;BME280;45368;55.002;-1.592;2022-12-17T00:13:35;100582.08;;;-0.29;65.80
59545;BME280;45368;55.002;-1.592;2022-12-17T00:16:03;100584.18;;;-0.69;66.81
59545;BME280;45368;55.002;-1.592;2022-12-17T00:18:31;100581.24;;;-0.29;65.49
59545;BME280;45368;55.002;-1.592;2022-12-17T00:20:59;100576.07;;;-0.34;65.98
59545;BME280;45368;55.002;-1.592;2022-12-17T00:23:26;100575.23;;;-0.40;65.65
59545;BME280;45368;55.002;-1.592;2022-12-17T00:25:55;100578.76;;;-0.48;65.84
59545;BME280;45368;55.002;-1.592;2022-12-17T00:28:22;100575.40;;;-0.57;65.68
59545;BME280;45368;55.002;-1.592;2022-12-17T00:30:50;100575.17;;;-0.63;66.60
59545;BME280;45368;55.002;-1.592;2022-12-17T00:33:17;100573.32;;;0.08;64.74
59545;BME280;45368;55.002;-1.592;2022-12-17T00:35:50;100568.23;;;-0.94;66.41
59545;BME280;45368;55.002;-1.592;2022-12-17T00:38:18;100563.34;;;-0.18;65.34
59545;BME280;45368;55.002;-1.592;2022-12-17T00:40:50;100560.56;;;-1.10;67.71
59545;BME280;45368;55.002;-1.592;2022-12-17T00:43:17;100561.58;;;-0.80;67.12
59545;BME280;45368;55.002;-1.592;2022-12-17T00:45:44;100556.05;;;-1.11;67.92
59545;BME280;45368;55.002;-1.592;2022-12-17T00:48:11;100550.08;;;-0.25;65.71
59545;BME280;45368;55.002;-1.592;2022-12-17T00:50:40;100549.24;;;-1.13;67.85
59545;BME280;45368;55.002;-1.592;2022-12-17T00:53:07;100553.58;;;-0.60;66.63
59545;BME280;45368;55.002;-1.592;2022-12-17T00:55:34;100547.33;;;-1.77;69.57
59545;BME280;45368;55.002;-1.592;2022-12-17T00:58:02;100544.66;;;-1.13;67.75
59545;BME280;45368;55.002;-1.592;2022-12-17T01:00:30;100546.87;;;-0.97;69.25
59545;BME280;45368;55.002;-1.592;2022-12-17T01:03:04;100547.05;;;-1.25;69.59
59545;BME280;45368;55.002;-1.592;2022-12-17T01:05:31;100547.24;;;-1.31;70.47
59545;BME280;45368;55.002;-1.592;2022-12-17T01:08:06;100545.75;;;-1.09;69.27
59545;BME280;45368;55.002;-1.592;2022-12-17T01:10:33;100547.94;;;-1.16;70.73
59545;BME280;45368;55.002;-1.592;2022-12-17T01:13:00;100552.26;;;-1.13;69.43
59545;BME280;45368;55.002;-1.592;2022-12-17T01:15:27;100554.50;;;-1.16;69.68
59545;BME280;45368;55.002;-1.592;2022-12-17T01:17:55;100555.79;;;-1.51;71.06
59545;BME280;45368;55.002;-1.592;2022-12-17T01:20:22;100557.85;;;-1.36;70.74
59545;BME280;45368;55.002;-1.592;2022-12-17T01:22:49;100552.00;;;-1.25;69.96
59545;BME280;45368;55.002;-1.592;2022-12-17T01:25:16;100551.68;;;-0.77;69.20
59545;BME280;45368;55.002;-1.592;2022-12-17T01:27:47;100556.33;;;-1.00;69.59
59545;BME280;45368;55.002;-1.592;2022-12-17T01:30:14;100552.07;;;-1.16;69.49
59545;BME280;45368;55.002;-1.592;2022-12-17T01:32:42;100551.12;;;-1.70;71.21
59545;BME280;45368;55.002;-1.592;2022-12-17T01:35:09;100553.79;;;-1.62;70.44
59545;BME280;45368;55.002;-1.592;2022-12-17T01:37:37;100547.40;;;-1.39;70.79
59545;BME280;45368;55.002;-1.592;2022-12-17T01:40:05;100539.15;;;-1.14;69.69
59545;BME280;45368;55.002;-1.592;2022-12-17T01:42:37;100535.21;;;-1.17;69.94
59545;BME280;45368;55.002;-1.592;2022-12-17T01:45:10;100538.76;;;-0.82;69.80
59545;BME280;45368;55.002;-1.592;2022-12-17T01:47:41;100533.84;;;-0.88;70.73
59545;BME280;45368;55.002;-1.592;2022-12-17T01:50:10;100532.06;;;-1.14;70.55
59545;BME280;45368;55.002;-1.592;2022-12-17T01:52:39;100528.52;;;-0.70;69.43
59545;BME280;45368;55.002;-1.592;2022-12-17T01:55:06;100529.59;;;-0.84;70.25
59545;BME280;45368;55.002;-1.592;2022-12-17T01:57:34;100529.16;;;-1.24;70.95
59545;BME280;45368;55.002;-1.592;2022-12-17T02:00:04;100530.21;;;-0.91;70.23
59545;BME280;45368;55.002;-1.592;2022-12-17T02:02:32;100528.98;;;-0.72;70.73
59545;BME280;45368;55.002;-1.592;2022-12-17T02:04:59;100532.46;;;-0.78;70.62
59545;BME280;45368;55.002;-1.592;2022-12-17T02:07:36;100533.76;;;-0.76;70.14
59545;BME280;45368;55.002;-1.592;2022-12-17T02:10:19;100537.06;;;-1.03;70.85
59545;BME280;45368;55.002;-1.592;2022-12-17T02:12:51;100545.27;;;-0.76;70.32
59545;BME280;45368;55.002;-1.592;2022-12-17T02:15:21;100542.83;;;-0.49;70.49
59545;BME280;45368;55.002;-1.592;2022-12-17T02:17:53;100539.22;;;-0.85;70.84
59545;BME280;45368;55.002;-1.592;2022-12-17T02:20:29;100546.39;;;-0.90;71.29
59545;BME280;45368;55.002;-1.592;2022-12-17T02:23:05;100549.65;;;-1.05;71.62
59545;BME280;45368;55.002;-1.592;2022-12-17T02:25:42;100548.96;;;-1.34;72.61
59545;BME280;45368;55.002;-1.592;2022-12-17T02:28:13;100545.52;;;-0.43;70.14
59545;BME280;45368;55.002;-1.592;2022-12-17T02:30:41;100554.13;;;-0.85;71.67
59545;BME280;45368;55.002;-1.592;2022-12-17T02:33:08;100548.19;;;-0.82;71.03
59545;BME280;45368;55.002;-1.592;2022-12-17T02:35:39;100542.22;;;-0.78;72.09
59545;BME280;45368;55.002;-1.592;2022-12-17T02:38:17;100543.65;;;-1.19;74.07
59545;BME280;45368;55.002;-1.592;2022-12-17T02:40:45;100541.56;;;-0.87;71.04
59545;BME280;45368;55.002;-1.592;2022-12-17T02:43:15;100549.74;;;-0.52;70.55
59545;BME280;45368;55.002;-1.592;2022-12-17T02:45:42;100548.33;;;-0.90;71.43
59545;BME280;45368;55.002;-1.592;2022-12-17T02:48:11;100543.45;;;-1.17;72.71
59545;BME280;45368;55.002;-1.592;2022-12-17T02:50:38;100555.47;;;-0.95;72.33
59545;BME280;45368;55.002;-1.592;2022-12-17T02:53:06;100558.09;;;-0.94;72.22
59545;BME280;45368;55.002;-1.592;2022-12-17T02:55:35;100554.45;;;-1.36;74.14
59545;BME280;45368;55.002;-1.592;2022-12-17T02:58:02;100559.47;;;-1.70;74.94
59545;BME280;45368;55.002;-1.592;2022-12-17T03:00:29;100560.71;;;-1.41;74.45
59545;BME280;45368;55.002;-1.592;2022-12-17T03:02:56;100565.58;;;-1.03;72.27
59545;BME280;45368;55.002;-1.592;2022-12-17T03:05:23;100570.76;;;-1.18;72.16
59545;BME280;45368;55.002;-1.592;2022-12-17T03:07:51;100572.73;;;-1.64;74.76
59545;BME280;45368;55.002;-1.592;2022-12-17T03:10:19;100570.14;;;-1.56;75.07
59545;BME280;45368;55.002;-1.592;2022-12-17T03:12:46;100569.03;;;-1.62;74.35
59545;BME280;45368;55.002;-1.592;2022-12-17T03:15:14;100565.26;;;-1.20;72.62
59545;BME280;45368;55.002;-1.592;2022-12-17T03:17:41;100566.81;;;-1.09;72.73
59545;BME280;45368;55.002;-1.592;2022-12-17T03:20:09;100569.51;;;-0.99;72.22
59545;BME280;45368;55.002;-1.592;2022-12-17T03:22:36;100565.36;;;-0.70;70.78
59545;BME280;45368;55.002;-1.592;2022-12-17T03:25:04;100572.73;;;-1.02;71.62
59545;BME280;45368;55.002;-1.592;2022-12-17T03:27:32;100571.61;;;-0.51;70.55
59545;BME280;45368;55.002;-1.592;2022-12-17T03:29:59;100573.00;;;-0.76;71.16
59545;BME280;45368;55.002;-1.592;2022-12-17T03:32:26;100561.94;;;0.25;68.05
59545;BME280;45368;55.002;-1.592;2022-12-17T03:34:53;100566.27;;;-0.45;68.42
59545;BME280;45368;55.002;-1.592;2022-12-17T03:37:20;100575.87;;;-0.57;70.79
59545;BME280;45368;55.002;-1.592;2022-12-17T03:39:47;100580.28;;;-0.99;71.59
59545;BME280;45368;55.002;-1.592;2022-12-17T03:42:15;100587.77;;;-0.43;70.21
59545;BME280;45368;55.002;-1.592;2022-12-17T03:44:42;100581.49;;;0.01;67.38
59545;BME280;45368;55.002;-1.592;2022-12-17T03:47:09;100589.45;;;0.02;68.70
59545;BME280;45368;55.002;-1.592;2022-12-17T03:49:36;100592.60;;;-0.31;69.12
59545;BME280;45368;55.002;-1.592;2022-12-17T03:52:03;100596.67;;;-0.50;69.76
59545;BME280;45368;55.002;-1.592;2022-12-17T03:54:30;100596.69;;;0.10;68.68
59545;BME280;45368;55.002;-1.592;2022-12-17T03:56:57;100586.81;;;0.13;68.04
59545;BME280;45368;55.002;-1.592;2022-12-17T03:59:24;100584.33;;;0.14;67.92
59545;BME280;45368;55.002;-1.592;2022-12-17T04:01:52;100588.64;;;-0.25;69.78
59545;BME280;45368;55.002;-1.592;2022-12-17T04:04:20;100587.47;;;0.09;67.84
59545;BME280;45368;55.002;-1.592;2022-12-17T04:06:47;100585.83;;;0.64;65.98
59545;BME280;45368;55.002;-1.592;2022-12-17T04:09:14;100585.46;;;0.15;66.42
59545;BME280;45368;55.002;-1.592;2022-12-17T04:11:41;100584.11;;;0.45;66.59
59545;BME280;45368;55.002;-1.592;2022-12-17T04:14:08;100584.10;;;-0.45;69.50
59545;BME280;45368;55.002;-1.592;2022-12-17T04:16:35;100579.03;;;0.32;67.48
59545;BME280;45368;55.002;-1.592;2022-12-17T04:19:03;100575.58;;;0.44;65.45
59545;BME280;45368;55.002;-1.592;2022-12-17T04:21:30;100573.20;;;1.72;62.89
59545;BME280;45368;55.002;-1.592;2022-12-17T04:23:57;100578.98;;;1.41;62.42
59545;BME280;45368;55.002;-1.592;2022-12-17T04:26:24;100571.73;;;2.56;60.17
59545;BME280;45368;55.002;-1.592;2022-12-17T04:28:51;100567.99;;;1.76;61.63
59545;BME280;45368;55.002;-1.592;2022-12-17T04:31:19;100569.70;;;1.72;61.55
59545;BME280;45368;55.002;-1.592;2022-12-17T04:33:46;100571.77;;;1.76;61.01
59545;BME280;45368;55.002;-1.592;2022-12-17T04:36:13;100571.95;;;1.78;61.25
59545;BME280;45368;55.002;-1.592;2022-12-17T04:38:41;100578.90;;;0.76;64.56
59545;BME280;45368;55.002;-1.592;2022-12-17T04:41:08;100573.36;;;0.90;64.15
59545;BME280;45368;55.002;-1.592;2022-12-17T04:43:36;100570.42;;;1.47;62.98
59545;BME280;45368;55.002;-1.592;2022-12-17T04:46:03;100576.33;;;0.64;64.59
59545;BME280;45368;55.002;-1.592;2022-12-17T04:48:30;100578.30;;;1.78;62.08
59545;BME280;45368;55.002;-1.592;2022-12-17T04:50:57;100580.01;;;2.66;59.72
59545;BME280;45368;55.002;-1.592;2022-12-17T04:53:24;100581.80;;;3.13;58.98
59545;BME280;45368;55.002;-1.592;2022-12-17T04:55:53;100588.35;;;2.85;59.14
59545;BME280;45368;55.002;-1.592;2022-12-17T04:58:20;100587.96;;;2.59;60.16
59545;BME280;45368;55.002;-1.592;2022-12-17T05:00:50;100589.35;;;2.11;61.41
59545;BME280;45368;55.002;-1.592;2022-12-17T05:03:17;100593.16;;;2.16;60.88
59545;BME280;45368;55.002;-1.592;2022-12-17T05:05:44;100594.22;;;2.12;61.54
59545;BME280;45368;55.002;-1.592;2022-12-17T05:08:11;100597.10;;;1.85;61.69
59545;BME280;45368;55.002;-1.592;2022-12-17T05:10:38;100601.24;;;1.65;62.76
59545;BME280;45368;55.002;-1.592;2022-12-17T05:13:08;100600.88;;;1.46;63.81
59545;BME280;45368;55.002;-1.592;2022-12-17T05:15:35;100600.81;;;1.46;64.29
59545;BME280;45368;55.002;-1.592;2022-12-17T05:18:04;100604.93;;;1.18;65.27
59545;BME280;45368;55.002;-1.592;2022-12-17T05:20:32;100604.33;;;1.20;65.66
59545;BME280;45368;55.002;-1.592;2022-12-17T05:23:04;100609.50;;;1.03;65.95
59545;BME280;45368;55.002;-1.592;2022-12-17T05:25:32;100605.74;;;2.04;63.00
59545;BME280;45368;55.002;-1.592;2022-12-17T05:27:59;100602.97;;;2.72;61.23
59545;BME280;45368;55.002;-1.592;2022-12-17T05:30:26;100599.92;;;2.91;60.88
59545;BME280;45368;55.002;-1.592;2022-12-17T05:32:58;100600.60;;;2.40;61.84
59545;BME280;45368;55.002;-1.592;2022-12-17T05:35:25;100597.22;;;2.60;60.87
59545;BME280;45368;55.002;-1.592;2022-12-17T05:37:52;100599.63;;;2.34;61.06
59545;BME280;45368;55.002;-1.592;2022-12-17T05:40:19;100603.93;;;1.98;63.55
59545;BME280;45368;55.002;-1.592;2022-12-17T05:42:54;100605.07;;;1.68;63.65
59545;BME280;45368;55.002;-1.592;2022-12-17T05:45:21;100605.77;;;1.21;65.25
59545;BME280;45368;55.002;-1.592;2022-12-17T05:47:48;100616.68;;;1.38;64.76
59545;BME280;45368;55.002;-1.592;2022-12-17T05:50:15;100616.96;;;1.59;64.51
59545;BME280;45368;55.002;-1.592;2022-12-17T05:52:42;100617.29;;;2.04;63.49
59545;BME280;45368;55.002;-1.592;2022-12-17T05:55:09;100620.81;;;1.40;65.33
59545;BME280;45368;55.002;-1.592;2022-12-17T05:57:36;100622.06;;;1.54;64.99
59545;BME280;45368;55.002;-1.592;2022-12-17T06:00:04;100630.10;;;1.20;65.76
59545;BME280;45368;55.002;-1.592;2022-12-17T06:02:31;100626.94;;;1.58;65.57
59545;BME280;45368;55.002;-1.592;2022-12-17T06:04:58;100617.21;;;1.91;63.77
59545;BME280;45368;55.002;-1.592;2022-12-17T06:07:25;100615.84;;;2.36;63.26
59545;BME280;45368;55.002;-1.592;2022-12-17T06:09:53;100612.84;;;1.25;65.27
59545;BME280;45368;55.002;-1.592;2022-12-17T06:12:20;100611.27;;;2.57;62.22
59545;BME280;45368;55.002;-1.592;2022-12-17T06:14:47;100610.37;;;2.85;61.39
59545;BME280;45368;55.002;-1.592;2022-12-17T06:17:14;100614.33;;;2.71;61.63
59545;BME280;45368;55.002;-1.592;2022-12-17T06:19:41;100612.29;;;2.88;60.50
59545;BME280;45368;55.002;-1.592;2022-12-17T06:22:08;100617.79;;;3.12;59.61
59545;BME280;45368;55.002;-1.592;2022-12-17T06:24:35;100615.14;;;2.94;60.07
59545;BME280;45368;55.002;-1.592;2022-12-17T06:27:02;100627.32;;;2.34;62.36
59545;BME280;45368;55.002;-1.592;2022-12-17T06:29:28;100627.34;;;2.36;61.59
59545;BME280;45368;55.002;-1.592;2022-12-17T06:31:55;100632.02;;;2.06;62.07
59545;BME280;45368;55.002;-1.592;2022-12-17T06:34:22;100627.13;;;1.82;63.30
59545;BME280;45368;55.002;-1.592;2022-12-17T06:36:49;100636.44;;;1.03;65.76
59545;BME280;45368;55.002;-1.592;2022-12-17T06:39:16;100638.87;;;0.85;66.88
59545;BME280;45368;55.002;-1.592;2022-12-17T06:41:44;100634.87;;;1.29;65.13
59545;BME280;45368;55.002;-1.592;2022-12-17T06:44:11;100635.40;;;0.48;67.67
59545;BME280;45368;55.002;-1.592;2022-12-17T06:46:38;100631.47;;;1.48;65.23
59545;BME280;45368;55.002;-1.592;2022-12-17T06:49:05;100631.57;;;1.53;64.64
59545;BME280;45368;55.002;-1.592;2022-12-17T06:51:32;100635.78;;;0.90;66.16
59545;BME280;45368;55.002;-1.592;2022-12-17T06:53:59;100632.68;;;1.56;65.47
59545;BME280;45368;55.002;-1.592;2022-12-17T06:56:27;100634.27;;;1.62;65.41
59545;BME280;45368;55.002;-1.592;2022-12-17T06:58:54;100632.90;;;1.18;66.46
59545;BME280;45368;55.002;-1.592;2022-12-17T07:01:21;100635.35;;;0.58;67.77
59545;BME280;45368;55.002;-1.592;2022-12-17T07:03:49;100620.21;;;0.97;66.68
59545;BME280;45368;55.002;-1.592;2022-12-17T07:06:16;100628.95;;;0.15;69.91
59545;BME280;45368;55.002;-1.592;2022-12-17T07:08:43;100631.61;;;0.82;67.15
59545;BME280;45368;55.002;-1.592;2022-12-17T07:11:10;100627.02;;;0.87;66.81
59545;BME280;45368;55.002;-1.592;2022-12-17T07:13:37;100626.07;;;1.20;65.67
59545;BME280;45368;55.002;-1.592;2022-12-17T07:16:04;100627.06;;;0.97;66.12
59545;BME280;45368;55.002;-1.592;2022-12-17T07:18:31;100627.51;;;1.04;65.90
59545;BME280;45368;55.002;-1.592;2022-12-17T07:20:58;100627.82;;;0.54;66.89
59545;BME280;45368;55.002;-1.592;2022-12-17T07:23:25;100630.68;;;1.11;66.64
59545;BME280;45368;55.002;-1.592;2022-12-17T07:25:52;100635.82;;;0.25;69.14
59545;BME280;45368;55.002;-1.592;2022-12-17T07:28:19;100641.01;;;0.41;70.05
59545;BME280;45368;55.002;-1.592;2022-12-17T07:30:46;100640.80;;;0.08;71.07
59545;BME280;45368;55.002;-1.592;2022-12-17T07:33:14;100637.57;;;0.18;70.22
59545;BME280;45368;55.002;-1.592;2022-12-17T07:35:41;100635.20;;;0.58;68.33
59545;BME280;45368;55.002;-1.592;2022-12-17T07:38:09;100636.99;;;-0.13;70.65
59545;BME280;45368;55.002;-1.592;2022-12-17T07:40:36;100640.70;;;0.44;69.70
59545;BME280;45368;55.002;-1.592;2022-12-17T07:43:09;100643.44;;;0.29;69.70
59545;BME280;45368;55.002;-1.592;2022-12-17T07:45:36;100647.38;;;0.51;68.31
59545;BME280;45368;55.002;-1.592;2022-12-17T07:48:04;100649.26;;;0.26;69.18
59545;BME280;45368;55.002;-1.592;2022-12-17T07:50:32;100647.13;;;0.67;68.29
59545;BME280;45368;55.002;-1.592;2022-12-17T07:52:59;100645.74;;;1.72;65.71
59545;BME280;45368;55.002;-1.592;2022-12-17T07:55:26;100645.46;;;1.70;64.45
59545;BME280;45368;55.002;-1.592;2022-12-17T07:58:02;100644.77;;;1.69;64.39
59545;BME280;45368;55.002;-1.592;2022-12-17T08:00:29;100640.14;;;2.31;62.64
59545;BME280;45368;55.002;-1.592;2022-12-17T08:02:57;100646.79;;;1.95;63.77
59545;BME280;45368;55.002;-1.592;2022-12-17T08:05:24;100641.71;;;1.85;63.77
59545;BME280;45368;55.002;-1.592;2022-12-17T08:07:51;100640.93;;;2.35;62.47
59545;BME280;45368;55.002;-1.592;2022-12-17T08:10:19;100652.56;;;1.59;64.06
59545;BME280;45368;55.002;-1.592;2022-12-17T08:12:53;100651.86;;;1.70;64.10
59545;BME280;45368;55.002;-1.592;2022-12-17T08:15:20;100654.63;;;1.53;64.82
59545;BME280;45368;55.002;-1.592;2022-12-17T08:17:47;100661.85;;;1.62;64.16
59545;BME280;45368;55.002;-1.592;2022-12-17T08:20:14;100661.86;;;1.58;64.67
59545;BME280;45368;55.002;-1.592;2022-12-17T08:22:41;100667.98;;;1.44;64.88
59545;BME280;45368;55.002;-1.592;2022-12-17T08:25:08;100669.23;;;1.68;64.21
59545;BME280;45368;55.002;-1.592;2022-12-17T08:27:36;100661.17;;;3.25;60.93
59545;BME280;45368;55.002;-1.592;2022-12-17T08:30:04;100656.31;;;2.66;60.59
59545;BME280;45368;55.002;-1.592;2022-12-17T08:32:32;100656.78;;;1.83;63.06
59545;BME280;45368;55.002;-1.592;2022-12-17T08:34:59;100655.64;;;2.43;62.06
59545;BME280;45368;55.002;-1.592;2022-12-17T08:37:26;100656.63;;;2.84;60.04
59545;BME280;45368;55.002;-1.592;2022-12-17T08:39:53;100664.27;;;2.48;61.33
59545;BME280;45368;55.002;-1.592;2022-12-17T08:42:20;100668.59;;;1.83;62.96
59545;BME280;45368;55.002;-1.592;2022-12-17T08:44:47;100670.71;;;1.34;65.02
59545;BME280;45368;55.002;-1.592;2022-12-17T08:47:14;100678.14;;;1.21;64.72
59545;BME280;45368;55.002;-1.592;2022-12-17T08:49:42;100677.00;;;2.08;62.79
59545;BME280;45368;55.002;-1.592;2022-12-17T08:52:09;100687.53;;;1.37;64.88
59545;BME280;45368;55.002;-1.592;2022-12-17T08:54:36;100691.74;;;1.85;64.18
59545;BME280;45368;55.002;-1.592;2022-12-17T08:57:03;100693.67;;;1.99;62.84
59545;BME280;45368;55.002;-1.592;2022-12-17T08:59:30;100694.48;;;2.57;61.76
59545;BME280;45368;55.002;-1.592;2022-12-17T09:01:58;100692.00;;;3.42;59.16
59545;BME280;45368;55.002;-1.592;2022-12-17T09:04:25;100702.72;;;2.24;61.07
59545;BME280;45368;55.002;-1.592;2022-12-17T09:06:53;100705.24;;;2.17;61.17
59545;BME280;45368;55.002;-1.592;2022-12-17T09:09:20;100717.04;;;1.62;63.48
59545;BME280;45368;55.002;-1.592;2022-12-17T09:11:47;100721.56;;;0.70;65.03
59545;BME280;45368;55.002;-1.592;2022-12-17T09:14:14;100719.79;;;1.53;62.68
59545;BME280;45368;55.002;-1.592;2022-12-17T09:16:42;100723.43;;;1.38;63.78
59545;BME280;45368;55.002;-1.592;2022-12-17T09:19:10;100720.18;;;1.89;62.88
59545;BME280;45368;55.002;-1.592;2022-12-17T09:21:53;100715.52;;;2.42;61.48
59545;BME280;45368;55.002;-1.592;2022-12-17T09:24:20;100714.47;;;1.98;61.44
59545;BME280;45368;55.002;-1.592;2022-12-17T09:26:47;100714.46;;;2.20;61.66
59545;BME280;45368;55.002;-1.592;2022-12-17T09:29:14;100715.19;;;1.47;63.35
59545;BME280;45368;55.002;-1.592;2022-12-17T09:31:41;100712.69;;;1.38;65.02
59545;BME280;45368;55.002;-1.592;2022-12-17T09:34:08;100714.91;;;1.32;64.88
59545;BME280;45368;55.002;-1.592;2022-12-17T09:36:35;100716.49;;;1.56;64.35
59545;BME280;45368;55.002;-1.592;2022-12-17T09:39:03;100717.68;;;2.20;62.48
59545;BME280;45368;55.002;-1.592;2022-12-17T09:41:39;100723.68;;;2.33;62.94
59545;BME280;45368;55.002;-1.592;2022-12-17T09:44:15;100730.21;;;2.51;62.83
59545;BME280;45368;55.002;-1.592;2022-12-17T09:46:51;100727.00;;;2.05;62.91
59545;BME280;45368;55.002;-1.592;2022-12-17T09:49:25;100730.74;;;2.95;61.57
59545;BME280;45368;55.002;-1.592;2022-12-17T09:51:53;100741.92;;;1.76;65.01
59545;BME280;45368;55.002;-1.592;2022-12-17T09:54:26;100745.60;;;1.85;64.97
59545;BME280;45368;55.002;-1.592;2022-12-17T09:56:56;100749.65;;;1.34;66.21
59545;BME280;45368;55.002;-1.592;2022-12-17T09:59:27;100748.76;;;2.20;63.82
59545;BME280;45368;55.002;-1.592;2022-12-17T10:01:54;100747.78;;;2.79;62.17
59545;BME280;45368;55.002;-1.592;2022-12-17T10:04:31;100747.73;;;2.38;62.02
59545;BME280;45368;55.002;-1.592;2022-12-17T10:07:00;100752.37;;;2.27;63.41
59545;BME280;45368;55.002;-1.592;2022-12-17T10:09:28;100751.67;;;1.88;64.45
59545;BME280;45368;55.002;-1.592;2022-12-17T10:12:00;100757.36;;;2.68;62.54
59545;BME280;45368;55.002;-1.592;2022-12-17T10:14:34;100763.24;;;2.25;64.35
59545;BME280;45368;55.002;-1.592;2022-12-17T10:17:02;100763.00;;;2.14;63.95
59545;BME280;45368;55.002;-1.592;2022-12-17T10:19:33;100766.39;;;2.02;64.42
59545;BME280;45368;55.002;-1.592;2022-12-17T10:22:10;100764.80;;;1.91;63.85
59545;BME280;45368;55.002;-1.592;2022-12-17T10:24:44;100762.92;;;1.96;63.26
59545;BME280;45368;55.002;-1.592;2022-12-17T10:27:17;100766.14;;;1.31;65.74
59545;BME280;45368;55.002;-1.592;2022-12-17T10:29:45;100762.64;;;2.49;63.46
59545;BME280;45368;55.002;-1.592;2022-12-17T10:32:20;100758.35;;;2.50;63.15
59545;BME280;45368;55.002;-1.592;2022-12-17T10:34:48;100761.64;;;2.28;64.49
59545;BME280;45368;55.002;-1.592;2022-12-17T10:37:18;100764.07;;;2.31;64.39
59545;BME280;45368;55.002;-1.592;2022-12-17T10:39:54;100760.83;;;3.08;62.38
59545;BME280;45368;55.002;-1.592;2022-12-17T10:42:23;100767.16;;;2.19;65.29
59545;BME280;45368;55.002;-1.592;2022-12-17T10:44:51;100770.61;;;1.93;65.39
59545;BME280;45368;55.002;-1.592;2022-12-17T10:47:19;100776.82;;;1.44;66.96
59545;BME280;45368;55.002;-1.592;2022-12-17T10:49:56;100767.61;;;2.03;64.72
59545;BME280;45368;55.002;-1.592;2022-12-17T10:52:26;100766.12;;;2.13;64.53
59545;BME280;45368;55.002;-1.592;2022-12-17T10:54:58;100766.56;;;1.53;66.70
59545;BME280;45368;55.002;-1.592;2022-12-17T10:57:30;100759.73;;;1.63;66.71
59545;BME280;45368;55.002;-1.592;2022-12-17T10:59:59;100764.06;;;1.33;67.90
59545;BME280;45368;55.002;-1.592;2022-12-17T11:02:28;100763.91;;;1.38;68.41
59545;BME280;45368;55.002;-1.592;2022-12-17T11:04:57;100758.51;;;1.18;68.39
59545;BME280;45368;55.002;-1.592;2022-12-17T11:07:27;100758.70;;;0.92;69.85
59545;BME280;45368;55.002;-1.592;2022-12-17T11:09:57;100753.29;;;1.57;67.58
59545;BME280;45368;55.002;-1.592;2022-12-17T11:12:31;100744.55;;;1.67;67.29
59545;BME280;45368;55.002;-1.592;2022-12-17T11:15:11;100751.89;;;1.51;67.37
59545;BME280;45368;55.002;-1.592;2022-12-17T11:17:39;100742.09;;;2.37;65.77
59545;BME280;45368;55.002;-1.592;2022-12-17T11:20:19;100738.18;;;1.60;67.65
59545;BME280;45368;55.002;-1.592;2022-12-17T11:22:51;100737.93;;;1.42;67.93
59545;BME280;45368;55.002;-1.592;2022-12-17T11:25:26;100730.31;;;1.38;67.84
59545;BME280;45368;55.002;-1.592;2022-12-17T11:28:02;100733.57;;;1.96;67.16
59545;BME280;45368;55.002;-1.592;2022-12-17T11:30:53;100731.55;;;2.42;65.98
59545;BME280;45368;55.002;-1.592;2022-12-17T11:33:27;100733.32;;;2.87;64.92
59545;BME280;45368;55.002;-1.592;2022-12-17T11:36:01;100730.04;;;4.60;60.70
59545;BME280;45368;55.002;-1.592;2022-12-17T11:38:36;100727.81;;;5.46;58.15
59545;BME280;45368;55.002;-1.592;2022-12-17T11:41:11;100727.88;;;5.37;57.00
59545;BME280;45368;55.002;-1.592;2022-12-17T11:43:53;100725.91;;;4.54;57.80
59545;BME280;45368;55.002;-1.592;2022-12-17T11:46:32;100727.25;;;3.54;59.92
59545;BME280;45368;55.002;-1.592;2022-12-17T11:49:08;100734.65;;;2.54;63.07
59545;BME280;45368;55.002;-1.592;2022-12-17T11:51:42;100733.36;;;2.91;62.33
59545;BME280;45368;55.002;-1.592;2022-12-17T11:54:25;100729.11;;;3.46;61.04
59545;BME280;45368;55.002;-1.592;2022-12-17T11:57:06;100726.44;;;3.05;61.69
59545;BME280;45368;55.002;-1.592;2022-12-17T11:59:37;100727.04;;;3.19;61.32
59545;BME280;45368;55.002;-1.592;2022-12-17T12:02:25;100722.36;;;3.35;60.03
59545;BME280;45368;55.002;-1.592;2022-12-17T12:05:10;100722.67;;;3.69;60.44
59545;BME280;45368;55.002;-1.592;2022-12-17T12:07:47;100721.47;;;2.05;63.95
59545;BME280;45368;55.002;-1.592;2022-12-17T12:10:21;100710.74;;;3.08;62.43
59545;BME280;45368;55.002;-1.592;2022-12-17T12:13:00;100720.30;;;1.97;64.91
59545;BME280;45368;55.002;-1.592;2022-12-17T12:15:37;100713.46;;;2.38;64.22
59545;BME280;45368;55.002;-1.592;2022-12-17T12:18:09;100711.64;;;2.79;64.22
59545;BME280;45368;55.002;-1.592;2022-12-17T12:20:55;100713.11;;;2.47;64.44
59545;BME280;45368;55.002;-1.592;2022-12-17T12:23:40;100719.36;;;2.21;65.24
59545;BME280;45368;55.002;-1.592;2022-12-17T12:26:14;100723.87;;;2.11;65.43
59545;BME280;45368;55.002;-1.592;2022-12-17T12:28:46;100721.38;;;2.31;64.58
59545;BME280;45368;55.002;-1.592;2022-12-17T12:31:36;100718.82;;;1.90;66.12
59545;BME280;45368;55.002;-1.592;2022-12-17T12:34:09;100715.72;;;2.18;65.74
59545;BME280;45368;55.002;-1.592;2022-12-17T12:37:02;100711.44;;;2.49;64.43
59545;BME280;45368;55.002;-1.592;2022-12-17T12:39:49;100708.38;;;2.85;64.11
59545;BME280;45368;55.002;-1.592;2022-12-17T12:42:22;100705.03;;;2.65;64.23
59545;BME280;45368;55.002;-1.592;2022-12-17T12:45:00;100701.56;;;3.17;63.26
59545;BME280;45368;55.002;-1.592;2022-12-17T12:47:36;100705.15;;;2.90;63.88
59545;BME280;45368;55.002;-1.592;2022-12-17T12:50:14;100700.78;;;3.62;61.35
59545;BME280;45368;55.002;-1.592;2022-12-17T12:52:50;100709.76;;;1.88;66.00
59545;BME280;45368;55.002;-1.592;2022-12-17T12:55:18;100701.54;;;2.82;64.16
59545;BME280;45368;55.002;-1.592;2022-12-17T12:57:56;100699.88;;;2.66;64.53
59545;BME280;45368;55.002;-1.592;2022-12-17T13:00:36;100698.13;;;3.03;61.98